map of EGXT home
EGXT - Airport
Location
City:  Wittering, Northamptonshire, England, United Kingdom
ICAO:EGXT

Details
Type:Airport (Aerodrome, Airfield)
Use:Military
Latitude:5236'45"N (52.612558)
Longitude:028'35"W (-0.476452)
Datum:WGS 1984
Elevation:273 ft (83 m)
Variation:0.35W (WMM2015v2 magnetic declination)
0.19 annual change
Runways:1
Longest:9052 × 200 ft (2759 × 61 m), paved

Time
Time Zone:UTC+0 (DST+1)
Local Time:

Weather
METAR:EGXT 041350Z 27014KT 9999 FEW019 BKN025 09/06 Q1014 BLU

Related Locations
Nearby:
Farthest:NZBA: 11812 mi / 19010 km
Balclutha, OTA, NZ

Find:

   beyond  
but within

Other Information
Maps:
NOTAMs:
Links:
Sources:

  
  • flag of United Kingdom
  • flag of England
  

Sectional Chart

Flight Planning
at skyvector.com

Satellite Image

Google Maps Satellite view

 

Copyright © 2004-2019 Karl L. Swartz. All rights reserved.
The Great Circle Mapper name and logo are trademarks of the Great Circle Mapper.
All other trademarks mentioned herein belong to their respective owners.
Please see credits for attibutions and further copyright information.

  Follow gcmap on Facebook Follow gcmap on Twitter GCmap on LinkedIn

hCard Microformat

Geo Microformat